Time;durP1;ratioP1;P1;durP2;ratioP2;P2;SDS_P1;SDS_P2;PMS_P1;PMS_P2;Temp;Humidity;BMP_temperature;BMP_pressure;BME280_temperature;BME280_humidity;BME280_pressure;Samples;Min_cycle;Max_cycle;Signal;HPM_P1;HPM_P2
2023/02/28 00:00:31;;;;;;;7.38;4.53;;;;;;;;;;5055638;28;20288;-69
2023/02/28 00:02:59;;;;;;;7.35;4.55;;;;;;;;;;5056218;28;20202;-69
2023/02/28 00:05:26;;;;;;;10.35;5.40;;;;;;;;;;5056036;28;20231;-69
2023/02/28 00:07:54;;;;;;;6.55;5.47;;;;;;;;;;5055664;28;20278;-69
2023/02/28 00:10:22;;;;;;;5.97;5.10;;;;;;;;;;5055830;28;20192;-69
2023/02/28 00:12:50;;;;;;;6.55;4.80;;;;;;;;;;5056621;28;20188;-69
2023/02/28 00:15:19;;;;;;;10.63;5.28;;;;;;;;;;5055655;28;20224;-69
2023/02/28 00:17:46;;;;;;;8.05;5.80;;;;;;;;;;5055994;28;20199;-69
2023/02/28 00:20:13;;;;;;;6.35;4.90;;;;;;;;;;5056129;28;20195;-69
2023/02/28 00:22:42;;;;;;;10.10;6.03;;;;;;;;;;5055677;28;20200;-69
2023/02/28 00:25:14;;;;;;;7.13;5.40;;;;;;;;;;5055539;28;20281;-68
2023/02/28 00:27:42;;;;;;;9.95;5.47;;;;;;;;;;5055347;28;20184;-68
2023/02/28 00:30:11;;;;;;;9.82;5.70;;;;;;;;;;5055378;28;20651;-68
2023/02/28 00:32:39;;;;;;;6.97;5.18;;;;;;;;;;5055108;28;20206;-69
2023/02/28 00:38:10;;;;;;;8.77;6.13;;;;;;;;;;5055368;28;20651;-69
2023/02/28 00:40:37;;;;;;;5.97;5.35;;;;;;;;;;5055260;28;20187;-68
2023/02/28 00:43:05;;;;;;;10.77;5.82;;;;;;;;;;5054706;28;20586;-69
2023/02/28 00:45:32;;;;;;;9.48;5.72;;;;;;;;;;5055219;28;20225;-69
2023/02/28 00:48:00;;;;;;;6.72;5.05;;;;;;;;;;5054820;28;20282;-69
2023/02/28 00:50:28;;;;;;;7.90;6.10;;;;;;;;;;5055239;28;20290;-69
2023/02/28 00:52:55;;;;;;;8.13;5.82;;;;;;;;;;5055587;28;20288;-69
2023/02/28 00:55:22;;;;;;;7.82;5.93;;;;;;;;;;5055198;28;20196;-69
2023/02/28 00:57:49;;;;;;;7.93;6.18;;;;;;;;;;5067123;28;20194;-69
2023/02/28 01:00:17;;;;;;;11.93;6.88;;;;;;;;;;5074825;28;20186;-69
2023/02/28 01:02:44;;;;;;;8.27;5.78;;;;;;;;;;5075033;28;20199;-69
2023/02/28 01:05:42;;;;;;;11.57;6.60;;;;;;;;;;5073142;28;20237;-68
2023/02/28 01:08:11;;;;;;;9.32;7.20;;;;;;;;;;5054815;28;20190;-69
2023/02/28 01:10:38;;;;;;;8.60;6.97;;;;;;;;;;5054586;28;20248;-69
2023/02/28 01:13:05;;;;;;;8.85;7.03;;;;;;;;;;5054557;28;20191;-68
2023/02/28 01:15:32;;;;;;;10.10;7.78;;;;;;;;;;5054694;28;20191;-69
2023/02/28 01:18:00;;;;;;;9.27;8.07;;;;;;;;;;5054912;28;20279;-68
2023/02/28 01:20:27;;;;;;;8.65;7.72;;;;;;;;;;5054510;28;20194;-69
2023/02/28 01:22:54;;;;;;;9.27;6.93;;;;;;;;;;5054887;28;20197;-69
2023/02/28 01:25:22;;;;;;;9.07;7.53;;;;;;;;;;5054396;28;20191;-69
2023/02/28 01:27:50;;;;;;;8.60;6.60;;;;;;;;;;5054717;28;20214;-69
2023/02/28 01:30:17;;;;;;;9.23;7.30;;;;;;;;;;5054275;28;20277;-69
2023/02/28 01:32:44;;;;;;;9.93;7.90;;;;;;;;;;5054799;28;20199;-69
2023/02/28 01:35:11;;;;;;;9.80;8.07;;;;;;;;;;5054577;28;20198;-69
2023/02/28 01:37:39;;;;;;;9.73;6.40;;;;;;;;;;5054188;28;20250;-69
2023/02/28 01:40:06;;;;;;;9.40;7.65;;;;;;;;;;5053920;28;20198;-69
2023/02/28 01:42:35;;;;;;;13.55;8.60;;;;;;;;;;5053770;28;20199;-69
2023/02/28 01:45:05;;;;;;;10.00;7.95;;;;;;;;;;5054138;28;20203;-69
2023/02/28 01:47:35;;;;;;;12.65;7.93;;;;;;;;;;5053729;28;20182;-68
2023/02/28 01:50:03;;;;;;;10.13;7.20;;;;;;;;;;5054044;28;20202;-69
2023/02/28 01:52:32;;;;;;;11.27;6.68;;;;;;;;;;5053911;28;20213;-69
2023/02/28 01:55:00;;;;;;;7.47;6.78;;;;;;;;;;5053736;28;20194;-69
2023/02/28 01:57:31;;;;;;;7.40;6.65;;;;;;;;;;5053462;28;20222;-69
2023/02/28 02:00:01;;;;;;;10.25;7.03;;;;;;;;;;5054170;28;20184;-69
2023/02/28 02:02:29;;;;;;;9.30;7.15;;;;;;;;;;5053391;28;20183;-69
2023/02/28 02:04:58;;;;;;;10.60;7.72;;;;;;;;;;5053871;28;20280;-69
2023/02/28 02:07:26;;;;;;;7.03;6.40;;;;;;;;;;5067836;28;20263;-69
2023/02/28 02:10:01;;;;;;;8.57;7.78;;;;;;;;;;5073722;28;20190;-69
2023/02/28 02:12:32;;;;;;;9.70;7.93;;;;;;;;;;5073828;28;20192;-69
2023/02/28 02:15:06;;;;;;;9.00;7.43;;;;;;;;;;5073692;28;20189;-69
2023/02/28 02:17:36;;;;;;;10.70;7.50;;;;;;;;;;5073270;28;20228;-70
2023/02/28 02:20:17;;;;;;;11.57;7.00;;;;;;;;;;5073837;28;20186;-70
2023/02/28 02:22:55;;;;;;;9.82;7.47;;;;;;;;;;5073627;28;20178;-69
2023/02/28 02:25:27;;;;;;;13.80;7.40;;;;;;;;;;5073654;28;20556;-69
2023/02/28 02:28:12;;;;;;;7.90;7.15;;;;;;;;;;5073638;28;20214;-69
2023/02/28 02:30:49;;;;;;;13.75;7.25;;;;;;;;;;5072837;28;20570;-69
2023/02/28 02:33:44;;;;;;;7.80;6.85;;;;;;;;;;5073286;28;20194;-69
2023/02/28 02:36:15;;;;;;;9.02;7.20;;;;;;;;;;5073731;28;20212;-69
2023/02/28 02:38:46;;;;;;;10.70;6.88;;;;;;;;;;5073351;28;20568;-69
2023/02/28 02:41:15;;;;;;;6.43;5.72;;;;;;;;;;5073160;28;20178;-70
2023/02/28 02:43:46;;;;;;;10.73;6.72;;;;;;;;;;5073294;28;20640;-69
2023/02/28 02:46:16;;;;;;;8.80;6.85;;;;;;;;;;5073366;28;20189;-69
2023/02/28 02:48:44;;;;;;;11.90;8.10;;;;;;;;;;5073343;28;20190;-70
2023/02/28 02:51:13;;;;;;;10.52;6.70;;;;;;;;;;5073277;28;20195;-69
2023/02/28 02:53:44;;;;;;;8.82;6.05;;;;;;;;;;5072931;28;20633;-69
2023/02/28 02:56:12;;;;;;;6.93;6.20;;;;;;;;;;5073646;28;20183;-69
2023/02/28 02:58:42;;;;;;;9.93;7.05;;;;;;;;;;5073118;28;20205;-69
2023/02/28 03:01:12;;;;;;;7.30;5.45;;;;;;;;;;5073396;28;20236;-69
2023/02/28 03:03:40;;;;;;;8.90;6.43;;;;;;;;;;5072882;28;20192;-69
2023/02/28 03:06:08;;;;;;;11.85;7.28;;;;;;;;;;5075690;28;20220;-69
2023/02/28 03:08:36;;;;;;;8.30;7.32;;;;;;;;;;5076791;28;20519;-69
2023/02/28 03:11:08;;;;;;;11.35;7.97;;;;;;;;;;5076740;28;20190;-69
2023/02/28 03:13:52;;;;;;;7.72;6.55;;;;;;;;;;5076849;28;20270;-69
2023/02/28 03:16:25;;;;;;;10.32;6.60;;;;;;;;;;5076625;28;20273;-68
2023/02/28 03:18:56;;;;;;;7.85;6.53;;;;;;;;;;5076799;28;20193;-69
2023/02/28 03:21:27;;;;;;;11.82;7.90;;;;;;;;;;5076821;28;20186;-69
2023/02/28 03:23:58;;;;;;;10.85;6.80;;;;;;;;;;5076787;28;20179;-69
2023/02/28 03:26:28;;;;;;;13.40;6.93;;;;;;;;;;5076516;28;20718;-69
2023/02/28 03:29:00;;;;;;;8.15;6.97;;;;;;;;;;5076964;28;20202;-68
2023/02/28 03:31:29;;;;;;;7.38;6.68;;;;;;;;;;5076970;28;20531;-69
2023/02/28 03:34:00;;;;;;;13.20;7.15;;;;;;;;;;5076719;28;20194;-69
2023/02/28 03:36:29;;;;;;;8.20;6.72;;;;;;;;;;5076300;28;20529;-69
2023/02/28 03:38:58;;;;;;;8.63;6.50;;;;;;;;;;5076478;28;20212;-69
2023/02/28 03:41:29;;;;;;;8.00;6.38;;;;;;;;;;5076555;28;20216;-69
2023/02/28 03:43:58;;;;;;;7.28;5.47;;;;;;;;;;5076479;28;20185;-70
2023/02/28 03:46:26;;;;;;;10.90;5.68;;;;;;;;;;5077228;28;20192;-68
2023/02/28 03:48:58;;;;;;;7.03;6.30;;;;;;;;;;5076255;28;20207;-69
2023/02/28 03:51:27;;;;;;;9.93;6.45;;;;;;;;;;5076897;28;20190;-68
2023/02/28 03:53:56;;;;;;;6.88;6.18;;;;;;;;;;5075865;28;20244;-68
2023/02/28 03:56:24;;;;;;;7.40;6.10;;;;;;;;;;5076091;28;20186;-68
2023/02/28 03:58:57;;;;;;;7.50;5.72;;;;;;;;;;5076135;28;20200;-68
2023/02/28 04:01:27;;;;;;;7.82;6.55;;;;;;;;;;5075855;28;20187;-68
2023/02/28 04:03:54;;;;;;;8.65;5.97;;;;;;;;;;5076276;28;20197;-68
2023/02/28 04:06:23;;;;;;;7.70;6.10;;;;;;;;;;5075873;28;20262;-68
2023/02/28 04:08:50;;;;;;;7.80;5.75;;;;;;;;;;5076141;28;20286;-68
2023/02/28 04:11:21;;;;;;;7.18;6.35;;;;;;;;;;5076394;28;20186;-68
2023/02/28 04:13:48;;;;;;;7.97;5.82;;;;;;;;;;5075866;28;20200;-69
2023/02/28 04:16:17;;;;;;;10.68;6.70;;;;;;;;;;5075408;28;20194;-68
2023/02/28 04:18:44;;;;;;;7.18;5.95;;;;;;;;;;5075455;28;20212;-68
2023/02/28 04:21:12;;;;;;;7.10;6.10;;;;;;;;;;5075423;28;20190;-69
2023/02/28 04:23:39;;;;;;;7.20;6.10;;;;;;;;;;5075370;28;20201;-68
2023/02/28 04:26:06;;;;;;;7.90;5.90;;;;;;;;;;5075655;28;20547;-68
2023/02/28 04:28:33;;;;;;;7.72;6.00;;;;;;;;;;5075678;28;20513;-68
2023/02/28 04:31:02;;;;;;;6.80;6.15;;;;;;;;;;5076235;28;20196;-69
2023/02/28 04:33:31;;;;;;;8.18;6.05;;;;;;;;;;5075610;28;20352;-68
2023/02/28 04:36:02;;;;;;;10.07;6.97;;;;;;;;;;5075103;28;20286;-67
2023/02/28 04:38:30;;;;;;;8.98;5.80;;;;;;;;;;5075242;28;20226;-65
2023/02/28 04:40:58;;;;;;;6.25;5.65;;;;;;;;;;5075047;28;20190;-67
2023/02/28 04:43:25;;;;;;;7.80;6.03;;;;;;;;;;5075360;28;20194;-67
2023/02/28 04:45:52;;;;;;;6.40;5.30;;;;;;;;;;5075317;28;20198;-67
2023/02/28 04:48:20;;;;;;;6.63;5.00;;;;;;;;;;5074808;28;20679;-67
2023/02/28 04:50:48;;;;;;;7.15;5.93;;;;;;;;;;5074863;28;20638;-67
2023/02/28 04:53:15;;;;;;;7.35;6.30;;;;;;;;;;5059090;28;20191;-67
2023/02/28 04:55:42;;;;;;;6.63;6.03;;;;;;;;;;5055002;28;20186;-67
2023/02/28 04:58:10;;;;;;;8.02;5.20;;;;;;;;;;5054790;28;20305;-68
2023/02/28 05:00:37;;;;;;;6.25;5.50;;;;;;;;;;5054953;28;20191;-67
2023/02/28 05:03:04;;;;;;;6.28;5.70;;;;;;;;;;5054376;28;20199;-68
2023/02/28 05:05:32;;;;;;;5.93;4.68;;;;;;;;;;5054696;28;20194;-68
2023/02/28 05:08:00;;;;;;;6.03;5.45;;;;;;;;;;5054651;28;20223;-68
2023/02/28 05:10:27;;;;;;;7.18;5.72;;;;;;;;;;5054428;28;20202;-68
2023/02/28 05:12:54;;;;;;;5.75;5.15;;;;;;;;;;5054291;28;20194;-67
2023/02/28 05:15:22;;;;;;;6.38;5.45;;;;;;;;;;5054306;28;20193;-68
2023/02/28 05:17:49;;;;;;;4.82;4.38;;;;;;;;;;5054476;28;20656;-68
2023/02/28 05:20:16;;;;;;;7.65;5.03;;;;;;;;;;5054542;28;20212;-68
2023/02/28 05:22:44;;;;;;;5.07;4.57;;;;;;;;;;5054352;28;20636;-67
2023/02/28 05:25:14;;;;;;;5.70;5.07;;;;;;;;;;5054022;28;20189;-67
2023/02/28 05:27:41;;;;;;;9.05;4.97;;;;;;;;;;5053812;28;20203;-68
2023/02/28 05:30:10;;;;;;;5.25;4.75;;;;;;;;;;5054092;28;20658;-67
2023/02/28 05:32:37;;;;;;;7.72;5.20;;;;;;;;;;5054265;28;20309;-68
2023/02/28 05:35:04;;;;;;;7.47;4.50;;;;;;;;;;5054188;28;20206;-68
2023/02/28 05:37:32;;;;;;;7.97;4.30;;;;;;;;;;5053735;28;20211;-67
2023/02/28 05:39:59;;;;;;;8.05;5.43;;;;;;;;;;5053709;28;20202;-69
2023/02/28 05:42:28;;;;;;;5.35;4.63;;;;;;;;;;5053751;28;20201;-68
2023/02/28 05:44:55;;;;;;;7.03;4.80;;;;;;;;;;5053972;28;20196;-67
2023/02/28 05:47:22;;;;;;;4.90;4.40;;;;;;;;;;5053954;28;20204;-67
2023/02/28 05:49:49;;;;;;;5.30;4.43;;;;;;;;;;5052555;28;20199;-67
2023/02/28 05:52:16;;;;;;;8.13;4.47;;;;;;;;;;5053533;28;20190;-68
2023/02/28 05:54:44;;;;;;;6.20;4.75;;;;;;;;;;5053499;28;20193;-67
2023/02/28 05:57:11;;;;;;;4.65;4.25;;;;;;;;;;5053465;28;20188;-67
2023/02/28 05:59:39;;;;;;;5.78;4.80;;;;;;;;;;5053628;28;20205;-67
2023/02/28 06:02:06;;;;;;;5.68;4.95;;;;;;;;;;5053732;28;20283;-67
2023/02/28 06:04:34;;;;;;;7.13;4.55;;;;;;;;;;5053770;28;20200;-67
2023/02/28 06:07:01;;;;;;;7.20;4.65;;;;;;;;;;5054026;28;20230;-67
2023/02/28 06:09:28;;;;;;;5.90;5.40;;;;;;;;;;5053354;28;20641;-67
2023/02/28 06:11:56;;;;;;;6.00;4.72;;;;;;;;;;5053925;28;20604;-67
2023/02/28 06:14:23;;;;;;;5.40;4.63;;;;;;;;;;5053569;28;20191;-67
2023/02/28 06:16:51;;;;;;;6.00;4.68;;;;;;;;;;5053820;28;20206;-67
2023/02/28 06:19:19;;;;;;;8.52;5.30;;;;;;;;;;5053464;28;20220;-67
2023/02/28 06:21:46;;;;;;;5.15;4.65;;;;;;;;;;5053220;28;20201;-67
2023/02/28 06:24:13;;;;;;;5.18;4.78;;;;;;;;;;5053507;28;20217;-67
2023/02/28 06:26:45;;;;;;;5.97;5.30;;;;;;;;;;5053490;28;20191;-67
2023/02/28 06:29:16;;;;;;;5.45;4.95;;;;;;;;;;5053601;28;20635;-67
2023/02/28 06:31:44;;;;;;;5.72;4.53;;;;;;;;;;5054127;28;20207;-67
2023/02/28 06:34:13;;;;;;;7.93;7.13;;;;;;;;;;5053675;28;20232;-67
2023/02/28 06:36:40;;;;;;;5.65;5.15;;;;;;;;;;5053328;28;20194;-67
2023/02/28 06:39:08;;;;;;;5.97;4.95;;;;;;;;;;5052631;28;20221;-67
2023/02/28 06:41:37;;;;;;;8.70;5.80;;;;;;;;;;5052967;28;20198;-66
2023/02/28 06:44:05;;;;;;;84.50;43.78;;;;;;;;;;5053349;28;20609;-67
2023/02/28 06:46:32;;;;;;;9.02;6.43;;;;;;;;;;5053217;28;20196;-67
2023/02/28 06:49:00;;;;;;;6.85;4.53;;;;;;;;;;5053268;28;20200;-67
2023/02/28 06:51:28;;;;;;;5.75;5.18;;;;;;;;;;5053113;28;20206;-67
2023/02/28 06:53:56;;;;;;;6.82;5.22;;;;;;;;;;5053237;28;20197;-67
2023/02/28 06:56:23;;;;;;;6.85;6.15;;;;;;;;;;5053212;28;20190;-67
2023/02/28 06:58:52;;;;;;;7.30;5.60;;;;;;;;;;5053150;28;20237;-67
2023/02/28 07:01:20;;;;;;;6.55;5.90;;;;;;;;;;5052793;28;20649;-66
2023/02/28 07:03:51;;;;;;;5.93;5.32;;;;;;;;;;5053669;28;20205;-67
2023/02/28 07:06:19;;;;;;;8.98;6.10;;;;;;;;;;5053030;28;20231;-66
2023/02/28 07:08:47;;;;;;;10.25;6.32;;;;;;;;;;5053131;28;20193;-66
2023/02/28 07:11:15;;;;;;;9.02;6.88;;;;;;;;;;5052978;28;20516;-66
2023/02/28 07:13:42;;;;;;;14.02;8.35;;;;;;;;;;5053273;28;20195;-66
2023/02/28 07:16:11;;;;;;;8.80;7.88;;;;;;;;;;5053015;28;20191;-67
2023/02/28 07:18:38;;;;;;;12.40;7.53;;;;;;;;;;5052646;28;20310;-67
2023/02/28 07:21:06;;;;;;;10.13;7.70;;;;;;;;;;5053113;28;20195;-66
2023/02/28 07:23:34;;;;;;;8.82;7.18;;;;;;;;;;5053255;28;20190;-67
2023/02/28 07:26:02;;;;;;;8.60;6.40;;;;;;;;;;5052564;28;20203;-67
2023/02/28 07:28:30;;;;;;;10.05;6.53;;;;;;;;;;5052639;28;20235;-68
2023/02/28 07:30:57;;;;;;;7.78;6.97;;;;;;;;;;5052557;28;20191;-66
2023/02/28 07:33:24;;;;;;;8.40;7.38;;;;;;;;;;5052475;28;20192;-67
2023/02/28 07:35:51;;;;;;;9.98;6.55;;;;;;;;;;5052829;28;20199;-67
2023/02/28 07:38:19;;;;;;;9.68;6.85;;;;;;;;;;5053001;28;20221;-67
2023/02/28 07:40:46;;;;;;;5.22;4.80;;;;;;;;;;5052791;28;20198;-66
2023/02/28 07:43:14;;;;;;;6.05;4.25;;;;;;;;;;5052796;28;20197;-66
2023/02/28 07:45:41;;;;;;;5.07;4.50;;;;;;;;;;5052683;28;20537;-67
2023/02/28 07:48:09;;;;;;;7.28;5.78;;;;;;;;;;5052811;28;20529;-66
2023/02/28 07:50:37;;;;;;;7.28;5.40;;;;;;;;;;5052867;28;20245;-67
2023/02/28 07:53:04;;;;;;;6.90;4.82;;;;;;;;;;5056542;28;20588;-69
2023/02/28 07:55:31;;;;;;;5.35;4.25;;;;;;;;;;5056134;28;20195;-67
2023/02/28 07:57:59;;;;;;;8.98;5.68;;;;;;;;;;5056177;28;20218;-67
2023/02/28 08:00:31;;;;;;;6.10;4.85;;;;;;;;;;5055915;28;20191;-67
2023/02/28 08:02:58;;;;;;;6.45;5.15;;;;;;;;;;5055980;28;20202;-66
2023/02/28 08:05:26;;;;;;;5.25;4.75;;;;;;;;;;5055704;28;20659;-67
2023/02/28 08:07:53;;;;;;;5.40;4.90;;;;;;;;;;5057150;28;20231;-66
2023/02/28 08:10:20;;;;;;;6.40;5.32;;;;;;;;;;5055999;28;20249;-66
2023/02/28 08:12:47;;;;;;;8.70;5.40;;;;;;;;;;5055904;28;20203;-66
2023/02/28 08:15:14;;;;;;;11.52;5.13;;;;;;;;;;5055983;28;20283;-66
2023/02/28 08:17:43;;;;;;;7.75;4.70;;;;;;;;;;5056047;28;20193;-66
2023/02/28 08:20:11;;;;;;;5.65;4.47;;;;;;;;;;5055754;28;20281;-66
2023/02/28 08:22:38;;;;;;;5.70;4.57;;;;;;;;;;5055851;28;20282;-66
2023/02/28 08:25:06;;;;;;;11.80;5.18;;;;;;;;;;5056137;28;20538;-66
2023/02/28 08:27:34;;;;;;;8.43;4.90;;;;;;;;;;5055910;28;20201;-66
2023/02/28 08:30:01;;;;;;;8.52;5.20;;;;;;;;;;5055584;28;20197;-66
2023/02/28 08:32:28;;;;;;;10.77;4.47;;;;;;;;;;5054949;28;20191;-67
2023/02/28 08:34:57;;;;;;;6.45;5.70;;;;;;;;;;5055499;28;20197;-66
2023/02/28 08:37:25;;;;;;;5.95;4.32;;;;;;;;;;5055686;28;20218;-67
2023/02/28 08:39:52;;;;;;;5.65;4.10;;;;;;;;;;5055337;28;20217;-66
2023/02/28 08:42:19;;;;;;;3.95;3.50;;;;;;;;;;5055305;28;20192;-66
2023/02/28 08:44:46;;;;;;;3.97;3.65;;;;;;;;;;5055284;28;20188;-67
2023/02/28 08:47:13;;;;;;;3.80;3.35;;;;;;;;;;5055175;28;20195;-67
2023/02/28 08:49:41;;;;;;;7.88;3.15;;;;;;;;;;5055125;28;20209;-67
2023/02/28 08:52:09;;;;;;;4.65;3.10;;;;;;;;;;5054642;28;20193;-68
2023/02/28 08:54:36;;;;;;;3.05;2.85;;;;;;;;;;5055152;28;20197;-67
2023/02/28 08:57:04;;;;;;;4.38;3.40;;;;;;;;;;5054656;28;20197;-67
2023/02/28 08:59:32;;;;;;;3.90;3.60;;;;;;;;;;5054997;28;20211;-67
2023/02/28 09:01:59;;;;;;;3.00;2.80;;;;;;;;;;5054458;28;20202;-68
2023/02/28 09:04:26;;;;;;;4.40;3.05;;;;;;;;;;5054451;28;20292;-67
2023/02/28 09:06:53;;;;;;;5.70;3.70;;;;;;;;;;5054617;28;20229;-67
2023/02/28 09:09:22;;;;;;;3.92;2.92;;;;;;;;;;5054495;28;20206;-65
2023/02/28 09:11:49;;;;;;;3.75;2.70;;;;;;;;;;5054760;28;20197;-66
2023/02/28 09:14:17;;;;;;;3.15;2.60;;;;;;;;;;5055161;28;20225;-67
2023/02/28 09:16:44;;;;;;;2.90;2.35;;;;;;;;;;5054567;28;20200;-66
2023/02/28 09:19:12;;;;;;;2.97;2.78;;;;;;;;;;5054608;28;20225;-67
2023/02/28 09:21:39;;;;;;;2.30;2.17;;;;;;;;;;5054545;28;20193;-67
2023/02/28 09:24:07;;;;;;;3.03;2.70;;;;;;;;;;5054998;28;20199;-67
2023/02/28 09:26:35;;;;;;;2.40;2.20;;;;;;;;;;5054318;28;20193;-67
2023/02/28 09:29:03;;;;;;;2.50;2.30;;;;;;;;;;5054218;28;20196;-67
2023/02/28 09:31:30;;;;;;;2.25;2.05;;;;;;;;;;5054201;28;20196;-67
2023/02/28 09:33:59;;;;;;;2.30;2.10;;;;;;;;;;5054568;28;20203;-67
2023/02/28 09:36:29;;;;;;;2.20;1.98;;;;;;;;;;5054339;28;20204;-67
2023/02/28 09:38:57;;;;;;;3.75;2.30;;;;;;;;;;5053908;28;20296;-66
2023/02/28 09:41:27;;;;;;;2.60;2.40;;;;;;;;;;5054285;28;20193;-66
2023/02/28 09:43:57;;;;;;;1.98;1.77;;;;;;;;;;5053903;28;20231;-66
2023/02/28 09:46:28;;;;;;;3.50;2.33;;;;;;;;;;5054062;28;20204;-66
2023/02/28 09:48:56;;;;;;;3.15;2.60;;;;;;;;;;5054067;28;20189;-66
2023/02/28 09:51:37;;;;;;;2.08;1.95;;;;;;;;;;5054238;28;20235;-66
2023/02/28 09:54:05;;;;;;;3.70;2.08;;;;;;;;;;5054003;28;20184;-66
2023/02/28 09:56:33;;;;;;;2.92;1.80;;;;;;;;;;5053913;28;20208;-67
2023/02/28 09:59:03;;;;;;;2.63;1.90;;;;;;;;;;5053439;28;20670;-66
2023/02/28 10:01:33;;;;;;;3.17;1.67;;;;;;;;;;5053543;28;20198;-66
2023/02/28 10:04:02;;;;;;;4.53;1.75;;;;;;;;;;5053353;28;20209;-66
2023/02/28 10:06:31;;;;;;;2.60;1.90;;;;;;;;;;5053715;28;20226;-66
2023/02/28 10:09:02;;;;;;;1.75;1.65;;;;;;;;;;5053388;28;20204;-67
2023/02/28 10:11:31;;;;;;;3.38;1.77;;;;;;;;;;5054163;28;20201;-67
2023/02/28 10:14:02;;;;;;;2.42;2.00;;;;;;;;;;5053351;28;20198;-66
2023/02/28 10:16:33;;;;;;;1.95;1.85;;;;;;;;;;5053357;28;20179;-66
2023/02/28 10:19:04;;;;;;;3.03;1.80;;;;;;;;;;5053504;28;20211;-66
2023/02/28 10:21:33;;;;;;;2.03;1.85;;;;;;;;;;5053631;28;20648;-66
2023/02/28 10:24:04;;;;;;;2.35;2.15;;;;;;;;;;5053897;28;20196;-66
2023/02/28 10:26:31;;;;;;;2.22;2.03;;;;;;;;;;5053885;28;20243;-66
2023/02/28 10:28:59;;;;;;;4.13;2.35;;;;;;;;;;5053069;28;20639;-66
2023/02/28 10:31:26;;;;;;;2.40;2.05;;;;;;;;;;5053454;28;20276;-66
2023/02/28 10:33:54;;;;;;;5.45;2.35;;;;;;;;;;5053524;28;20571;-67
2023/02/28 10:36:22;;;;;;;3.42;2.25;;;;;;;;;;5053376;28;20610;-66
2023/02/28 10:38:51;;;;;;;2.05;1.95;;;;;;;;;;5053270;28;20228;-66
2023/02/28 10:41:28;;;;;;;2.85;2.65;;;;;;;;;;5053384;28;20262;-66
2023/02/28 10:44:13;;;;;;;4.40;2.35;;;;;;;;;;5053838;28;20182;-67
2023/02/28 10:46:41;;;;;;;4.80;2.67;;;;;;;;;;5053305;28;20182;-67
2023/02/28 10:49:14;;;;;;;2.28;2.08;;;;;;;;;;5053164;28;20233;-66
2023/02/28 10:51:42;;;;;;;2.50;2.30;;;;;;;;;;5053620;28;20198;-66
2023/02/28 10:54:17;;;;;;;2.20;2.00;;;;;;;;;;5053502;28;20200;-66
2023/02/28 10:56:44;;;;;;;2.85;2.40;;;;;;;;;;5054114;28;20238;-66
2023/02/28 10:59:25;;;;;;;2.17;2.00;;;;;;;;;;5053122;28;20228;-66
2023/02/28 11:01:53;;;;;;;2.72;2.53;;;;;;;;;;5053627;28;20684;-66
2023/02/28 11:04:35;;;;;;;2.50;2.30;;;;;;;;;;5053146;28;20194;-66
2023/02/28 11:07:03;;;;;;;2.70;2.50;;;;;;;;;;5053187;28;20222;-66
2023/02/28 11:09:33;;;;;;;2.22;2.10;;;;;;;;;;5053191;28;20288;-66
2023/02/28 11:12:01;;;;;;;3.15;2.47;;;;;;;;;;5052823;28;20195;-66
2023/02/28 11:14:29;;;;;;;3.55;3.10;;;;;;;;;;5053194;28;20195;-66
2023/02/28 11:16:58;;;;;;;2.60;2.40;;;;;;;;;;5053026;28;20201;-66
2023/02/28 11:19:27;;;;;;;2.88;2.67;;;;;;;;;;5052910;28;20577;-66
2023/02/28 11:21:57;;;;;;;3.17;2.88;;;;;;;;;;5052988;28;20191;-66
2023/02/28 11:24:26;;;;;;;3.20;2.47;;;;;;;;;;5052543;28;20647;-66
2023/02/28 11:26:53;;;;;;;3.15;2.85;;;;;;;;;;5054838;28;20199;-67
2023/02/28 11:29:21;;;;;;;2.50;2.30;;;;;;;;;;5056630;28;20209;-66
2023/02/28 11:32:03;;;;;;;2.70;2.50;;;;;;;;;;5056426;28;20194;-66
2023/02/28 11:34:31;;;;;;;3.47;2.45;;;;;;;;;;5056890;28;20207;-66
2023/02/28 11:36:59;;;;;;;2.80;2.60;;;;;;;;;;5056672;28;20196;-66
2023/02/28 11:39:27;;;;;;;2.75;2.55;;;;;;;;;;5056369;28;20217;-66
2023/02/28 11:42:04;;;;;;;3.58;2.95;;;;;;;;;;5056226;28;20193;-66
2023/02/28 11:44:38;;;;;;;2.50;2.30;;;;;;;;;;5056387;28;20187;-66
2023/02/28 11:47:08;;;;;;;2.50;2.30;;;;;;;;;;5056641;28;20230;-66
2023/02/28 11:49:44;;;;;;;2.58;2.35;;;;;;;;;;5056387;28;20188;-66
2023/02/28 11:52:21;;;;;;;2.42;2.22;;;;;;;;;;5056242;28;20228;-66
2023/02/28 11:55:04;;;;;;;2.30;2.10;;;;;;;;;;5056283;28;20187;-66
2023/02/28 11:57:37;;;;;;;2.40;2.20;;;;;;;;;;5056532;28;20187;-66
2023/02/28 12:00:09;;;;;;;3.33;2.25;;;;;;;;;;5056239;28;20256;-66
2023/02/28 12:02:40;;;;;;;2.20;2.00;;;;;;;;;;5056356;28;20184;-66
2023/02/28 12:05:19;;;;;;;3.92;2.78;;;;;;;;;;5056131;28;20186;-66
2023/02/28 12:07:51;;;;;;;2.53;2.33;;;;;;;;;;5056129;28;20226;-66
2023/02/28 12:10:22;;;;;;;2.30;2.15;;;;;;;;;;5055995;28;20204;-66
2023/02/28 12:12:52;;;;;;;3.13;2.50;;;;;;;;;;5055670;28;20272;-65
2023/02/28 12:15:29;;;;;;;3.67;2.45;;;;;;;;;;5055971;28;20187;-66
2023/02/28 12:18:01;;;;;;;3.05;2.85;;;;;;;;;;5055715;28;20616;-65
2023/02/28 12:20:34;;;;;;;3.25;2.83;;;;;;;;;;5055491;28;20206;-65
2023/02/28 12:23:09;;;;;;;3.20;2.65;;;;;;;;;;5055453;28;20183;-65
2023/02/28 12:25:50;;;;;;;3.10;2.25;;;;;;;;;;5055812;28;20270;-66
2023/02/28 12:28:20;;;;;;;3.45;3.05;;;;;;;;;;5055618;28;20192;-65
2023/02/28 12:30:51;;;;;;;3.40;3.10;;;;;;;;;;5055352;28;20205;-65
2023/02/28 12:33:20;;;;;;;3.22;2.92;;;;;;;;;;5055173;28;20200;-67
2023/02/28 12:35:51;;;;;;;3.90;3.53;;;;;;;;;;5055107;28;20196;-65
2023/02/28 12:38:21;;;;;;;4.57;3.30;;;;;;;;;;5055052;28;20187;-65
2023/02/28 12:40:50;;;;;;;3.60;3.22;;;;;;;;;;5055473;28;20240;-66
2023/02/28 12:43:22;;;;;;;3.50;3.20;;;;;;;;;;5055401;28;20221;-65
2023/02/28 12:45:51;;;;;;;2.83;2.65;;;;;;;;;;5055435;28;20183;-65
2023/02/28 12:48:21;;;;;;;3.38;3.10;;;;;;;;;;5055120;28;20196;-65
2023/02/28 12:50:50;;;;;;;3.13;2.92;;;;;;;;;;5055112;28;20186;-65
2023/02/28 12:53:26;;;;;;;3.40;2.85;;;;;;;;;;5054734;28;20285;-65
2023/02/28 12:55:58;;;;;;;3.28;2.97;;;;;;;;;;5054799;28;20651;-65
2023/02/28 12:58:29;;;;;;;5.70;3.35;;;;;;;;;;5054670;28;20217;-65
2023/02/28 13:01:15;;;;;;;3.92;3.70;;;;;;;;;;5054553;28;20204;-65
2023/02/28 13:03:50;;;;;;;3.22;2.88;;;;;;;;;;5055321;28;20518;-65
2023/02/28 13:06:24;;;;;;;3.85;3.45;;;;;;;;;;5054397;28;20227;-65
2023/02/28 13:09:10;;;;;;;2.80;2.60;;;;;;;;;;5054859;28;20588;-65
2023/02/28 13:11:41;;;;;;;3.28;2.97;;;;;;;;;;5054748;28;20184;-65
2023/02/28 13:14:23;;;;;;;2.97;2.53;;;;;;;;;;5054500;28;20184;-66
2023/02/28 13:16:57;;;;;;;3.13;2.90;;;;;;;;;;5054635;28;20188;-66
2023/02/28 13:19:26;;;;;;;3.55;3.35;;;;;;;;;;5054700;28;20182;-66
2023/02/28 13:21:55;;;;;;;5.97;2.50;;;;;;;;;;5054254;28;20655;-66
2023/02/28 13:24:52;;;;;;;3.67;2.78;;;;;;;;;;5054539;28;20221;-66
2023/02/28 13:27:34;;;;;;;2.80;2.53;;;;;;;;;;4954477;29;20188;-66
2023/02/28 13:30:02;;;;;;;2.40;2.20;;;;;;;;;;5041706;28;20205;-66
2023/02/28 13:32:31;;;;;;;3.47;3.28;;;;;;;;;;5054086;28;20195;-67
2023/02/28 13:35:31;;;;;;;2.90;2.63;;;;;;;;;;5054019;28;20662;-66
2023/02/28 13:38:13;;;;;;;2.85;2.65;;;;;;;;;;5054381;28;20193;-66
2023/02/28 13:40:42;;;;;;;3.33;2.90;;;;;;;;;;5054046;28;20209;-66
2023/02/28 13:43:10;;;;;;;2.78;2.55;;;;;;;;;;5054287;28;20199;-66
2023/02/28 13:45:39;;;;;;;3.40;2.55;;;;;;;;;;5054087;28;20547;-66
2023/02/28 13:48:16;;;;;;;2.63;2.42;;;;;;;;;;5054857;28;20282;-66
2023/02/28 13:50:44;;;;;;;2.90;2.70;;;;;;;;;;5054070;28;20704;-66
2023/02/28 13:56:07;;;;;;;6.65;2.95;;;;;;;;;;5074111;28;20174;-67
2023/02/28 13:58:41;;;;;;;3.08;2.78;;;;;;;;;;5074044;28;20182;-68
2023/02/28 14:01:24;;;;;;;3.22;2.80;;;;;;;;;;5073985;28;20307;-68
2023/02/28 14:04:00;;;;;;;2.88;2.60;;;;;;;;;;5073906;28;20280;-68
2023/02/28 14:06:29;;;;;;;4.63;2.80;;;;;;;;;;5073747;28;20231;-68
2023/02/28 14:08:58;;;;;;;3.97;2.80;;;;;;;;;;5074175;28;20201;-68
2023/02/28 14:11:29;;;;;;;2.72;2.50;;;;;;;;;;5069939;28;20289;-69
2023/02/28 14:13:56;;;;;;;2.97;2.78;;;;;;;;;;5053129;28;20197;-68
2023/02/28 14:16:26;;;;;;;3.10;2.85;;;;;;;;;;5052888;28;20202;-69
2023/02/28 14:18:57;;;;;;;5.55;2.40;;;;;;;;;;5053268;28;20195;-69
2023/02/28 14:21:26;;;;;;;3.38;2.72;;;;;;;;;;5052769;28;20711;-70
2023/02/28 14:24:18;;;;;;;2.95;2.70;;;;;;;;;;5053057;28;20255;-68
2023/02/28 14:26:55;;;;;;;3.60;2.80;;;;;;;;;;5053559;28;20180;-69
2023/02/28 14:29:37;;;;;;;3.20;3.00;;;;;;;;;;5053283;28;20182;-69
2023/02/28 14:32:07;;;;;;;3.45;3.17;;;;;;;;;;5053436;28;20187;-68
2023/02/28 14:34:39;;;;;;;6.32;3.45;;;;;;;;;;5052779;28;20199;-69
2023/02/28 14:37:07;;;;;;;3.03;2.83;;;;;;;;;;5053245;28;20183;-68
2023/02/28 14:39:36;;;;;;;2.97;2.78;;;;;;;;;;5053124;28;20190;-69
2023/02/28 14:42:05;;;;;;;4.35;3.20;;;;;;;;;;5052546;28;20318;-68
2023/02/28 14:44:32;;;;;;;4.25;3.30;;;;;;;;;;5053258;28;20200;-68
2023/02/28 14:47:04;;;;;;;4.47;3.55;;;;;;;;;;5053433;28;20194;-69
2023/02/28 14:49:32;;;;;;;3.53;3.22;;;;;;;;;;5053031;28;20190;-69
2023/02/28 14:52:05;;;;;;;5.70;3.70;;;;;;;;;;5053482;28;20204;-70
2023/02/28 14:54:33;;;;;;;3.78;3.38;;;;;;;;;;5053236;28;20197;-68
2023/02/28 14:57:00;;;;;;;8.18;4.05;;;;;;;;;;5052766;28;20198;-68
2023/02/28 14:59:30;;;;;;;3.80;3.50;;;;;;;;;;5052872;28;20284;-68
2023/02/28 15:02:16;;;;;;;5.55;4.10;;;;;;;;;;5055146;28;20248;-69